sensor_id;sensor_type;location;lat;lon;timestamp;P1;durP1;ratioP1;P2;durP2;ratioP2
9536;SDS011;4807;48.024;11.726;2022-09-02T00:02:41;2.50;;;2.30;;
9536;SDS011;4807;48.024;11.726;2022-09-02T00:05:49;5.00;;;2.83;;
9536;SDS011;4807;48.024;11.726;2022-09-02T00:08:59;3.30;;;3.10;;
9536;SDS011;4807;48.024;11.726;2022-09-02T00:12:10;2.67;;;2.47;;
9536;SDS011;4807;48.024;11.726;2022-09-02T00:15:18;2.13;;;2.03;;
9536;SDS011;4807;48.024;11.726;2022-09-02T00:18:26;2.40;;;2.27;;
9536;SDS011;4807;48.024;11.726;2022-09-02T00:21:35;2.57;;;2.37;;
9536;SDS011;4807;48.024;11.726;2022-09-02T00:24:45;2.87;;;2.67;;
9536;SDS011;4807;48.024;11.726;2022-09-02T00:27:53;2.87;;;2.63;;
9536;SDS011;4807;48.024;11.726;2022-09-02T00:31:01;2.73;;;2.53;;
9536;SDS011;4807;48.024;11.726;2022-09-02T00:34:10;2.97;;;2.77;;
9536;SDS011;4807;48.024;11.726;2022-09-02T00:37:19;2.90;;;2.70;;
9536;SDS011;4807;48.024;11.726;2022-09-02T00:40:30;3.83;;;3.13;;
9536;SDS011;4807;48.024;11.726;2022-09-02T00:43:42;3.40;;;3.10;;
9536;SDS011;4807;48.024;11.726;2022-09-02T00:46:54;3.33;;;3.10;;
9536;SDS011;4807;48.024;11.726;2022-09-02T00:50:03;3.10;;;2.90;;
9536;SDS011;4807;48.024;11.726;2022-09-02T00:53:16;3.63;;;3.23;;
9536;SDS011;4807;48.024;11.726;2022-09-02T00:56:28;3.60;;;3.30;;
9536;SDS011;4807;48.024;11.726;2022-09-02T00:59:40;3.30;;;3.10;;
9536;SDS011;4807;48.024;11.726;2022-09-02T01:03:04;2.87;;;2.67;;
9536;SDS011;4807;48.024;11.726;2022-09-02T01:06:18;3.03;;;2.83;;
9536;SDS011;4807;48.024;11.726;2022-09-02T01:09:32;2.90;;;2.70;;
9536;SDS011;4807;48.024;11.726;2022-09-02T01:12:43;3.37;;;3.07;;
9536;SDS011;4807;48.024;11.726;2022-09-02T01:15:54;2.53;;;2.30;;
9536;SDS011;4807;48.024;11.726;2022-09-02T01:19:14;2.53;;;2.33;;
9536;SDS011;4807;48.024;11.726;2022-09-02T01:22:33;3.90;;;3.50;;
9536;SDS011;4807;48.024;11.726;2022-09-02T01:25:42;3.77;;;3.47;;
9536;SDS011;4807;48.024;11.726;2022-09-02T01:28:51;3.93;;;3.63;;
9536;SDS011;4807;48.024;11.726;2022-09-02T01:31:59;3.47;;;3.17;;
9536;SDS011;4807;48.024;11.726;2022-09-02T01:35:08;3.37;;;3.17;;
9536;SDS011;4807;48.024;11.726;2022-09-02T01:38:19;3.60;;;3.30;;
9536;SDS011;4807;48.024;11.726;2022-09-02T01:41:29;3.50;;;3.20;;
9536;SDS011;4807;48.024;11.726;2022-09-02T01:44:38;3.70;;;3.50;;
9536;SDS011;4807;48.024;11.726;2022-09-02T01:47:50;3.83;;;3.43;;
9536;SDS011;4807;48.024;11.726;2022-09-02T01:51:00;6.23;;;3.90;;
9536;SDS011;4807;48.024;11.726;2022-09-02T01:54:12;4.70;;;4.17;;
9536;SDS011;4807;48.024;11.726;2022-09-02T01:57:21;5.03;;;4.63;;
9536;SDS011;4807;48.024;11.726;2022-09-02T02:00:30;4.03;;;3.73;;
9536;SDS011;4807;48.024;11.726;2022-09-02T02:03:40;4.27;;;3.97;;
9536;SDS011;4807;48.024;11.726;2022-09-02T02:06:48;4.10;;;3.63;;
9536;SDS011;4807;48.024;11.726;2022-09-02T02:10:00;4.53;;;4.13;;
9536;SDS011;4807;48.024;11.726;2022-09-02T02:13:10;4.57;;;4.20;;
9536;SDS011;4807;48.024;11.726;2022-09-02T02:16:21;13.90;;;10.63;;
9536;SDS011;4807;48.024;11.726;2022-09-02T02:19:29;14.60;;;11.10;;
9536;SDS011;4807;48.024;11.726;2022-09-02T02:22:38;9.67;;;8.07;;
9536;SDS011;4807;48.024;11.726;2022-09-02T02:25:48;7.07;;;6.37;;
9536;SDS011;4807;48.024;11.726;2022-09-02T02:28:56;6.43;;;5.40;;
9536;SDS011;4807;48.024;11.726;2022-09-02T02:32:06;6.07;;;4.67;;
9536;SDS011;4807;48.024;11.726;2022-09-02T02:35:14;5.00;;;4.60;;
9536;SDS011;4807;48.024;11.726;2022-09-02T02:38:26;4.27;;;3.90;;
9536;SDS011;4807;48.024;11.726;2022-09-02T02:41:37;4.07;;;3.77;;
9536;SDS011;4807;48.024;11.726;2022-09-02T02:44:51;4.33;;;3.93;;
9536;SDS011;4807;48.024;11.726;2022-09-02T02:48:00;3.73;;;3.43;;
9536;SDS011;4807;48.024;11.726;2022-09-02T02:51:11;4.00;;;3.57;;
9536;SDS011;4807;48.024;11.726;2022-09-02T02:54:20;4.23;;;3.83;;
9536;SDS011;4807;48.024;11.726;2022-09-02T03:02:27;3.23;;;2.93;;
9536;SDS011;4807;48.024;11.726;2022-09-02T03:05:40;3.00;;;2.80;;
9536;SDS011;4807;48.024;11.726;2022-09-02T03:08:48;2.70;;;2.50;;
9536;SDS011;4807;48.024;11.726;2022-09-02T03:11:58;2.60;;;2.40;;
9536;SDS011;4807;48.024;11.726;2022-09-02T03:15:08;2.70;;;2.50;;
9536;SDS011;4807;48.024;11.726;2022-09-02T03:18:20;2.80;;;2.60;;
9536;SDS011;4807;48.024;11.726;2022-09-02T03:21:29;3.63;;;3.20;;
9536;SDS011;4807;48.024;11.726;2022-09-02T03:24:45;3.63;;;3.33;;
9536;SDS011;4807;48.024;11.726;2022-09-02T03:27:53;3.13;;;2.93;;
9536;SDS011;4807;48.024;11.726;2022-09-02T03:31:03;3.17;;;2.97;;
9536;SDS011;4807;48.024;11.726;2022-09-02T03:34:14;3.53;;;3.30;;
9536;SDS011;4807;48.024;11.726;2022-09-02T03:37:23;4.37;;;3.63;;
9536;SDS011;4807;48.024;11.726;2022-09-02T03:40:31;3.70;;;3.40;;
9536;SDS011;4807;48.024;11.726;2022-09-02T03:43:41;3.87;;;3.57;;
9536;SDS011;4807;48.024;11.726;2022-09-02T03:46:49;4.57;;;3.67;;
9536;SDS011;4807;48.024;11.726;2022-09-02T03:50:00;3.60;;;3.37;;
9536;SDS011;4807;48.024;11.726;2022-09-02T03:53:09;3.33;;;3.13;;
9536;SDS011;4807;48.024;11.726;2022-09-02T03:56:27;3.53;;;3.30;;
9536;SDS011;4807;48.024;11.726;2022-09-02T03:59:36;3.20;;;2.90;;
9536;SDS011;4807;48.024;11.726;2022-09-02T04:02:44;5.00;;;4.10;;
9536;SDS011;4807;48.024;11.726;2022-09-02T04:05:58;5.47;;;4.30;;
9536;SDS011;4807;48.024;11.726;2022-09-02T04:09:07;7.83;;;4.90;;
9536;SDS011;4807;48.024;11.726;2022-09-02T04:12:18;6.17;;;4.70;;
9536;SDS011;4807;48.024;11.726;2022-09-02T04:15:28;5.83;;;4.00;;
9536;SDS011;4807;48.024;11.726;2022-09-02T04:18:37;6.00;;;4.17;;
9536;SDS011;4807;48.024;11.726;2022-09-02T04:21:47;4.67;;;4.27;;
9536;SDS011;4807;48.024;11.726;2022-09-02T04:24:56;8.17;;;4.67;;
9536;SDS011;4807;48.024;11.726;2022-09-02T04:28:05;5.73;;;4.17;;
9536;SDS011;4807;48.024;11.726;2022-09-02T04:31:15;5.63;;;4.60;;
9536;SDS011;4807;48.024;11.726;2022-09-02T04:34:29;9.60;;;4.40;;
9536;SDS011;4807;48.024;11.726;2022-09-02T04:37:39;4.20;;;3.50;;
9536;SDS011;4807;48.024;11.726;2022-09-02T04:40:49;3.60;;;3.30;;
9536;SDS011;4807;48.024;11.726;2022-09-02T04:43:58;4.17;;;3.87;;
9536;SDS011;4807;48.024;11.726;2022-09-02T04:47:10;4.30;;;3.90;;
9536;SDS011;4807;48.024;11.726;2022-09-02T04:50:21;7.10;;;4.20;;
9536;SDS011;4807;48.024;11.726;2022-09-02T04:53:38;4.10;;;3.37;;
9536;SDS011;4807;48.024;11.726;2022-09-02T04:56:49;4.10;;;3.20;;
9536;SDS011;4807;48.024;11.726;2022-09-02T05:00:02;2.90;;;2.70;;
9536;SDS011;4807;48.024;11.726;2022-09-02T05:03:12;3.10;;;2.67;;
9536;SDS011;4807;48.024;11.726;2022-09-02T05:06:24;5.10;;;3.00;;
9536;SDS011;4807;48.024;11.726;2022-09-02T05:09:38;4.40;;;4.00;;
9536;SDS011;4807;48.024;11.726;2022-09-02T05:12:46;4.77;;;4.30;;
9536;SDS011;4807;48.024;11.726;2022-09-02T05:15:55;5.83;;;3.77;;
9536;SDS011;4807;48.024;11.726;2022-09-02T05:19:04;4.33;;;3.97;;
9536;SDS011;4807;48.024;11.726;2022-09-02T05:22:19;7.30;;;3.87;;
9536;SDS011;4807;48.024;11.726;2022-09-02T05:25:28;4.33;;;3.10;;
9536;SDS011;4807;48.024;11.726;2022-09-02T05:28:38;4.90;;;3.47;;
9536;SDS011;4807;48.024;11.726;2022-09-02T05:31:49;3.30;;;3.07;;
9536;SDS011;4807;48.024;11.726;2022-09-02T05:35:00;3.83;;;3.53;;
9536;SDS011;4807;48.024;11.726;2022-09-02T05:38:11;3.87;;;3.40;;
9536;SDS011;4807;48.024;11.726;2022-09-02T05:41:22;4.00;;;3.70;;
9536;SDS011;4807;48.024;11.726;2022-09-02T05:44:35;4.10;;;3.80;;
9536;SDS011;4807;48.024;11.726;2022-09-02T05:47:46;7.17;;;4.20;;
9536;SDS011;4807;48.024;11.726;2022-09-02T05:50:56;4.63;;;4.23;;
9536;SDS011;4807;48.024;11.726;2022-09-02T05:54:06;4.60;;;4.20;;
9536;SDS011;4807;48.024;11.726;2022-09-02T05:57:19;5.03;;;4.63;;
9536;SDS011;4807;48.024;11.726;2022-09-02T06:00:36;5.60;;;5.07;;
9536;SDS011;4807;48.024;11.726;2022-09-02T06:03:46;7.53;;;5.40;;
9536;SDS011;4807;48.024;11.726;2022-09-02T06:06:55;8.37;;;7.57;;
9536;SDS011;4807;48.024;11.726;2022-09-02T06:10:04;8.30;;;7.50;;
9536;SDS011;4807;48.024;11.726;2022-09-02T06:13:16;8.97;;;8.07;;
9536;SDS011;4807;48.024;11.726;2022-09-02T06:16:30;8.43;;;7.73;;
9536;SDS011;4807;48.024;11.726;2022-09-02T06:19:39;10.93;;;8.97;;
9536;SDS011;4807;48.024;11.726;2022-09-02T06:22:49;12.50;;;11.30;;
9536;SDS011;4807;48.024;11.726;2022-09-02T06:25:59;11.83;;;10.70;;
9536;SDS011;4807;48.024;11.726;2022-09-02T06:29:09;5.43;;;4.83;;
9536;SDS011;4807;48.024;11.726;2022-09-02T06:32:18;3.53;;;3.23;;
9536;SDS011;4807;48.024;11.726;2022-09-02T06:35:29;3.80;;;3.50;;
9536;SDS011;4807;48.024;11.726;2022-09-02T06:38:43;2.80;;;2.60;;
9536;SDS011;4807;48.024;11.726;2022-09-02T06:41:56;3.57;;;2.60;;
9536;SDS011;4807;48.024;11.726;2022-09-02T06:45:09;1.97;;;1.87;;
9536;SDS011;4807;48.024;11.726;2022-09-02T06:48:18;2.43;;;2.13;;
9536;SDS011;4807;48.024;11.726;2022-09-02T06:51:30;3.03;;;2.50;;
9536;SDS011;4807;48.024;11.726;2022-09-02T06:54:41;2.40;;;2.20;;
9536;SDS011;4807;48.024;11.726;2022-09-02T06:57:53;4.53;;;1.80;;
9536;SDS011;4807;48.024;11.726;2022-09-02T07:01:04;3.17;;;1.90;;
9536;SDS011;4807;48.024;11.726;2022-09-02T07:04:14;1.90;;;1.80;;
9536;SDS011;4807;48.024;11.726;2022-09-02T07:07:42;2.17;;;1.97;;
9536;SDS011;4807;48.024;11.726;2022-09-02T07:10:53;2.03;;;1.70;;
9536;SDS011;4807;48.024;11.726;2022-09-02T07:14:02;2.10;;;1.90;;
9536;SDS011;4807;48.024;11.726;2022-09-02T07:17:13;1.70;;;1.60;;
9536;SDS011;4807;48.024;11.726;2022-09-02T07:20:27;3.20;;;1.37;;
9536;SDS011;4807;48.024;11.726;2022-09-02T07:23:38;1.50;;;1.40;;
9536;SDS011;4807;48.024;11.726;2022-09-02T07:26:48;2.07;;;1.37;;
9536;SDS011;4807;48.024;11.726;2022-09-02T07:30:02;3.63;;;1.57;;
9536;SDS011;4807;48.024;11.726;2022-09-02T07:33:17;1.53;;;1.40;;
9536;SDS011;4807;48.024;11.726;2022-09-02T07:36:26;4.00;;;1.60;;
9536;SDS011;4807;48.024;11.726;2022-09-02T07:39:36;2.57;;;1.63;;
9536;SDS011;4807;48.024;11.726;2022-09-02T07:42:44;1.77;;;1.67;;
9536;SDS011;4807;48.024;11.726;2022-09-02T07:45:53;1.60;;;1.50;;
9536;SDS011;4807;48.024;11.726;2022-09-02T07:49:09;1.43;;;1.33;;
9536;SDS011;4807;48.024;11.726;2022-09-02T07:52:20;2.27;;;1.90;;
9536;SDS011;4807;48.024;11.726;2022-09-02T07:55:29;2.00;;;1.70;;
9536;SDS011;4807;48.024;11.726;2022-09-02T07:58:39;3.23;;;2.33;;
9536;SDS011;4807;48.024;11.726;2022-09-02T08:01:56;2.40;;;2.20;;
9536;SDS011;4807;48.024;11.726;2022-09-02T08:05:07;3.70;;;1.90;;
9536;SDS011;4807;48.024;11.726;2022-09-02T08:08:16;2.07;;;1.87;;
9536;SDS011;4807;48.024;11.726;2022-09-02T08:11:26;2.10;;;1.90;;
9536;SDS011;4807;48.024;11.726;2022-09-02T08:14:34;3.00;;;2.00;;
9536;SDS011;4807;48.024;11.726;2022-09-02T08:17:43;2.83;;;1.93;;
9536;SDS011;4807;48.024;11.726;2022-09-02T08:20:52;2.40;;;2.17;;
9536;SDS011;4807;48.024;11.726;2022-09-02T08:24:02;1.60;;;1.50;;
9536;SDS011;4807;48.024;11.726;2022-09-02T08:27:12;1.60;;;1.50;;
9536;SDS011;4807;48.024;11.726;2022-09-02T08:30:26;2.30;;;1.97;;
9536;SDS011;4807;48.024;11.726;2022-09-02T08:42:08;2.10;;;1.33;;
9536;SDS011;4807;48.024;11.726;2022-09-02T08:46:16;1.57;;;1.47;;
9536;SDS011;4807;48.024;11.726;2022-09-02T08:50:07;2.63;;;1.40;;
9536;SDS011;4807;48.024;11.726;2022-09-02T08:53:47;1.50;;;1.40;;
9536;SDS011;4807;48.024;11.726;2022-09-02T08:57:04;1.50;;;1.40;;
9536;SDS011;4807;48.024;11.726;2022-09-02T09:00:38;1.40;;;1.30;;
9536;SDS011;4807;48.024;11.726;2022-09-02T09:08:43;1.00;;;1.00;;
9536;SDS011;4807;48.024;11.726;2022-09-02T09:17:43;1.80;;;1.40;;
9536;SDS011;4807;48.024;11.726;2022-09-02T09:21:36;3.47;;;1.30;;
9536;SDS011;4807;48.024;11.726;2022-09-02T09:24:47;2.50;;;1.40;;
9536;SDS011;4807;48.024;11.726;2022-09-02T09:28:00;1.50;;;1.27;;
9536;SDS011;4807;48.024;11.726;2022-09-02T09:36:25;2.10;;;1.20;;
9536;SDS011;4807;48.024;11.726;2022-09-02T09:40:26;1.10;;;1.00;;
9536;SDS011;4807;48.024;11.726;2022-09-02T09:43:41;3.27;;;1.00;;
9536;SDS011;4807;48.024;11.726;2022-09-02T09:52:35;1.37;;;0.90;;
9536;SDS011;4807;48.024;11.726;2022-09-02T09:55:53;4.00;;;0.80;;
9536;SDS011;4807;48.024;11.726;2022-09-02T10:03:49;1.23;;;0.80;;
9536;SDS011;4807;48.024;11.726;2022-09-02T10:12:44;0.70;;;0.70;;
9536;SDS011;4807;48.024;11.726;2022-09-02T10:17:05;2.57;;;0.77;;
9536;SDS011;4807;48.024;11.726;2022-09-02T10:20:39;0.70;;;0.70;;
9536;SDS011;4807;48.024;11.726;2022-09-02T10:25:22;1.27;;;0.80;;
9536;SDS011;4807;48.024;11.726;2022-09-02T10:29:26;1.70;;;0.87;;
9536;SDS011;4807;48.024;11.726;2022-09-02T10:34:04;1.43;;;0.60;;
9536;SDS011;4807;48.024;11.726;2022-09-02T10:37:42;1.30;;;1.10;;
9536;SDS011;4807;48.024;11.726;2022-09-02T10:41:12;0.90;;;0.80;;
9536;SDS011;4807;48.024;11.726;2022-09-02T10:44:42;0.97;;;0.93;;
9536;SDS011;4807;48.024;11.726;2022-09-02T10:48:18;1.43;;;0.70;;
9536;SDS011;4807;48.024;11.726;2022-09-02T10:53:16;2.33;;;0.63;;
9536;SDS011;4807;48.024;11.726;2022-09-02T10:56:53;0.93;;;0.80;;
9536;SDS011;4807;48.024;11.726;2022-09-02T11:01:01;1.13;;;0.60;;
9536;SDS011;4807;48.024;11.726;2022-09-02T11:05:12;0.40;;;0.40;;
9536;SDS011;4807;48.024;11.726;2022-09-02T11:09:39;1.43;;;0.50;;
9536;SDS011;4807;48.024;11.726;2022-09-02T11:14:06;1.43;;;0.60;;
9536;SDS011;4807;48.024;11.726;2022-09-02T11:18:43;1.10;;;0.60;;
9536;SDS011;4807;48.024;11.726;2022-09-02T11:22:51;0.50;;;0.50;;
9536;SDS011;4807;48.024;11.726;2022-09-02T11:26:14;1.00;;;0.60;;
9536;SDS011;4807;48.024;11.726;2022-09-02T11:35:16;1.37;;;0.40;;
9536;SDS011;4807;48.024;11.726;2022-09-02T11:38:33;0.50;;;0.50;;
9536;SDS011;4807;48.024;11.726;2022-09-02T11:41:55;3.00;;;0.57;;
9536;SDS011;4807;48.024;11.726;2022-09-02T11:45:21;0.87;;;0.50;;
9536;SDS011;4807;48.024;11.726;2022-09-02T11:48:52;0.50;;;0.50;;
9536;SDS011;4807;48.024;11.726;2022-09-02T11:52:43;1.60;;;0.50;;
9536;SDS011;4807;48.024;11.726;2022-09-02T11:56:07;0.50;;;0.50;;
9536;SDS011;4807;48.024;11.726;2022-09-02T12:04:01;0.93;;;0.60;;
9536;SDS011;4807;48.024;11.726;2022-09-02T12:07:48;0.70;;;0.70;;
9536;SDS011;4807;48.024;11.726;2022-09-02T12:11:04;2.53;;;0.50;;
9536;SDS011;4807;48.024;11.726;2022-09-02T12:16:07;0.70;;;0.70;;
9536;SDS011;4807;48.024;11.726;2022-09-02T12:25:45;0.50;;;0.50;;
9536;SDS011;4807;48.024;11.726;2022-09-02T12:30:08;0.93;;;0.83;;
9536;SDS011;4807;48.024;11.726;2022-09-02T12:44:24;1.23;;;0.60;;
9536;SDS011;4807;48.024;11.726;2022-09-02T12:47:45;0.70;;;0.70;;
9536;SDS011;4807;48.024;11.726;2022-09-02T12:51:13;0.70;;;0.60;;
9536;SDS011;4807;48.024;11.726;2022-09-02T12:55:51;0.87;;;0.60;;
9536;SDS011;4807;48.024;11.726;2022-09-02T13:00:34;2.30;;;0.67;;
9536;SDS011;4807;48.024;11.726;2022-09-02T13:04:27;0.70;;;0.70;;
9536;SDS011;4807;48.024;11.726;2022-09-02T13:13:15;0.70;;;0.70;;
9536;SDS011;4807;48.024;11.726;2022-09-02T13:17:28;0.50;;;0.50;;
9536;SDS011;4807;48.024;11.726;2022-09-02T13:20:58;0.40;;;0.40;;
9536;SDS011;4807;48.024;11.726;2022-09-02T13:33:15;0.90;;;0.60;;
9536;SDS011;4807;48.024;11.726;2022-09-02T13:36:43;0.90;;;0.70;;
9536;SDS011;4807;48.024;11.726;2022-09-02T13:40:30;0.60;;;0.60;;
9536;SDS011;4807;48.024;11.726;2022-09-02T13:44:20;0.70;;;0.70;;
9536;SDS011;4807;48.024;11.726;2022-09-02T13:47:40;0.57;;;0.57;;
9536;SDS011;4807;48.024;11.726;2022-09-02T13:50:58;0.60;;;0.60;;
9536;SDS011;4807;48.024;11.726;2022-09-02T13:54:25;0.93;;;0.70;;
9536;SDS011;4807;48.024;11.726;2022-09-02T13:57:45;0.60;;;0.60;;
9536;SDS011;4807;48.024;11.726;2022-09-02T14:05:35;0.63;;;0.63;;
9536;SDS011;4807;48.024;11.726;2022-09-02T14:13:44;0.60;;;0.60;;
9536;SDS011;4807;48.024;11.726;2022-09-02T14:18:01;1.23;;;0.40;;
9536;SDS011;4807;48.024;11.726;2022-09-02T14:26:26;2.60;;;0.60;;
9536;SDS011;4807;48.024;11.726;2022-09-02T14:29:53;1.17;;;0.70;;
9536;SDS011;4807;48.024;11.726;2022-09-02T14:33:27;0.70;;;0.67;;
9536;SDS011;4807;48.024;11.726;2022-09-02T14:36:51;0.60;;;0.60;;
9536;SDS011;4807;48.024;11.726;2022-09-02T14:44:08;2.53;;;0.80;;
9536;SDS011;4807;48.024;11.726;2022-09-02T14:47:21;0.60;;;0.60;;
9536;SDS011;4807;48.024;11.726;2022-09-02T14:50:31;1.03;;;0.70;;
9536;SDS011;4807;48.024;11.726;2022-09-02T14:53:43;0.80;;;0.50;;
9536;SDS011;4807;48.024;11.726;2022-09-02T14:56:52;0.60;;;0.60;;
9536;SDS011;4807;48.024;11.726;2022-09-02T15:00:10;1.53;;;0.70;;
9536;SDS011;4807;48.024;11.726;2022-09-02T15:04:07;1.80;;;0.60;;
9536;SDS011;4807;48.024;11.726;2022-09-02T15:08:00;0.70;;;0.60;;
9536;SDS011;4807;48.024;11.726;2022-09-02T15:11:11;1.03;;;0.60;;
9536;SDS011;4807;48.024;11.726;2022-09-02T15:14:23;1.20;;;0.67;;
9536;SDS011;4807;48.024;11.726;2022-09-02T15:17:34;1.33;;;0.70;;
9536;SDS011;4807;48.024;11.726;2022-09-02T15:20:44;0.50;;;0.50;;
9536;SDS011;4807;48.024;11.726;2022-09-02T15:23:55;0.60;;;0.60;;
9536;SDS011;4807;48.024;11.726;2022-09-02T15:27:03;1.53;;;0.70;;
9536;SDS011;4807;48.024;11.726;2022-09-02T15:30:13;0.50;;;0.50;;
9536;SDS011;4807;48.024;11.726;2022-09-02T15:33:26;0.67;;;0.50;;
9536;SDS011;4807;48.024;11.726;2022-09-02T15:36:35;0.73;;;0.50;;
9536;SDS011;4807;48.024;11.726;2022-09-02T15:39:43;1.77;;;0.60;;
9536;SDS011;4807;48.024;11.726;2022-09-02T15:42:51;1.90;;;0.67;;
9536;SDS011;4807;48.024;11.726;2022-09-02T15:46:01;0.60;;;0.57;;
9536;SDS011;4807;48.024;11.726;2022-09-02T15:49:13;0.93;;;0.60;;
9536;SDS011;4807;48.024;11.726;2022-09-02T15:52:22;1.87;;;0.70;;
9536;SDS011;4807;48.024;11.726;2022-09-02T15:55:32;1.77;;;0.50;;
9536;SDS011;4807;48.024;11.726;2022-09-02T15:58:41;0.60;;;0.57;;
9536;SDS011;4807;48.024;11.726;2022-09-02T16:01:50;0.73;;;0.50;;
9536;SDS011;4807;48.024;11.726;2022-09-02T16:05:03;2.70;;;0.70;;
9536;SDS011;4807;48.024;11.726;2022-09-02T16:08:12;0.70;;;0.60;;
9536;SDS011;4807;48.024;11.726;2022-09-02T16:11:20;0.67;;;0.60;;
9536;SDS011;4807;48.024;11.726;2022-09-02T16:14:29;1.40;;;0.63;;
9536;SDS011;4807;48.024;11.726;2022-09-02T16:17:37;0.57;;;0.50;;
9536;SDS011;4807;48.024;11.726;2022-09-02T16:20:48;0.60;;;0.53;;
9536;SDS011;4807;48.024;11.726;2022-09-02T16:23:57;1.20;;;0.50;;
9536;SDS011;4807;48.024;11.726;2022-09-02T16:27:07;1.13;;;0.50;;
9536;SDS011;4807;48.024;11.726;2022-09-02T16:30:16;1.00;;;0.90;;
9536;SDS011;4807;48.024;11.726;2022-09-02T16:33:24;2.17;;;0.60;;
9536;SDS011;4807;48.024;11.726;2022-09-02T16:36:35;1.00;;;0.63;;
9536;SDS011;4807;48.024;11.726;2022-09-02T16:39:46;0.60;;;0.50;;
9536;SDS011;4807;48.024;11.726;2022-09-02T16:42:55;0.50;;;0.50;;
9536;SDS011;4807;48.024;11.726;2022-09-02T16:46:09;1.13;;;0.50;;
9536;SDS011;4807;48.024;11.726;2022-09-02T16:49:19;0.47;;;0.40;;
9536;SDS011;4807;48.024;11.726;2022-09-02T16:52:30;1.23;;;0.67;;
9536;SDS011;4807;48.024;11.726;2022-09-02T16:55:40;0.57;;;0.57;;
9536;SDS011;4807;48.024;11.726;2022-09-02T16:58:52;0.50;;;0.50;;
9536;SDS011;4807;48.024;11.726;2022-09-02T17:02:05;1.23;;;0.50;;
9536;SDS011;4807;48.024;11.726;2022-09-02T17:05:14;1.17;;;0.77;;
9536;SDS011;4807;48.024;11.726;2022-09-02T17:08:26;1.17;;;1.07;;
9536;SDS011;4807;48.024;11.726;2022-09-02T17:11:35;2.00;;;0.60;;
9536;SDS011;4807;48.024;11.726;2022-09-02T17:14:46;0.50;;;0.50;;
9536;SDS011;4807;48.024;11.726;2022-09-02T17:17:55;1.70;;;0.60;;
9536;SDS011;4807;48.024;11.726;2022-09-02T17:21:12;1.90;;;0.50;;
9536;SDS011;4807;48.024;11.726;2022-09-02T17:24:29;2.27;;;0.67;;
9536;SDS011;4807;48.024;11.726;2022-09-02T17:27:41;0.50;;;0.50;;
9536;SDS011;4807;48.024;11.726;2022-09-02T17:30:50;0.37;;;0.37;;
9536;SDS011;4807;48.024;11.726;2022-09-02T17:33:59;0.57;;;0.57;;
9536;SDS011;4807;48.024;11.726;2022-09-02T17:37:12;0.57;;;0.57;;
9536;SDS011;4807;48.024;11.726;2022-09-02T17:40:22;1.00;;;0.40;;
9536;SDS011;4807;48.024;11.726;2022-09-02T17:43:47;0.93;;;0.50;;
9536;SDS011;4807;48.024;11.726;2022-09-02T17:46:56;3.47;;;0.73;;
9536;SDS011;4807;48.024;11.726;2022-09-02T17:50:06;1.27;;;0.60;;
9536;SDS011;4807;48.024;11.726;2022-09-02T17:53:21;0.40;;;0.40;;
9536;SDS011;4807;48.024;11.726;2022-09-02T18:00:07;2.10;;;0.60;;
9536;SDS011;4807;48.024;11.726;2022-09-02T18:03:26;0.80;;;0.60;;
9536;SDS011;4807;48.024;11.726;2022-09-02T18:06:51;1.00;;;0.77;;
9536;SDS011;4807;48.024;11.726;2022-09-02T18:10:09;0.83;;;0.77;;
9536;SDS011;4807;48.024;11.726;2022-09-02T18:13:20;1.60;;;0.80;;
9536;SDS011;4807;48.024;11.726;2022-09-02T18:16:38;0.50;;;0.50;;
9536;SDS011;4807;48.024;11.726;2022-09-02T18:20:09;1.53;;;0.70;;
9536;SDS011;4807;48.024;11.726;2022-09-02T18:23:30;0.90;;;0.60;;
9536;SDS011;4807;48.024;11.726;2022-09-02T18:26:58;0.60;;;0.50;;
9536;SDS011;4807;48.024;11.726;2022-09-02T18:30:23;1.17;;;0.60;;
9536;SDS011;4807;48.024;11.726;2022-09-02T18:33:48;0.53;;;0.53;;
9536;SDS011;4807;48.024;11.726;2022-09-02T18:37:27;0.60;;;0.60;;
9536;SDS011;4807;48.024;11.726;2022-09-02T18:40:51;1.97;;;0.70;;
9536;SDS011;4807;48.024;11.726;2022-09-02T18:44:25;0.67;;;0.67;;
9536;SDS011;4807;48.024;11.726;2022-09-02T18:47:47;2.30;;;0.70;;
9536;SDS011;4807;48.024;11.726;2022-09-02T18:51:02;0.97;;;0.80;;
9536;SDS011;4807;48.024;11.726;2022-09-02T18:54:20;0.63;;;0.63;;
9536;SDS011;4807;48.024;11.726;2022-09-02T18:57:34;2.00;;;0.60;;
9536;SDS011;4807;48.024;11.726;2022-09-02T19:00:52;1.73;;;0.63;;
9536;SDS011;4807;48.024;11.726;2022-09-02T19:04:06;0.63;;;0.63;;
9536;SDS011;4807;48.024;11.726;2022-09-02T19:07:17;1.57;;;0.80;;
9536;SDS011;4807;48.024;11.726;2022-09-02T19:10:45;0.70;;;0.70;;
9536;SDS011;4807;48.024;11.726;2022-09-02T19:13:54;0.70;;;0.70;;
9536;SDS011;4807;48.024;11.726;2022-09-02T19:17:12;0.77;;;0.73;;
9536;SDS011;4807;48.024;11.726;2022-09-02T19:20:23;0.70;;;0.70;;
9536;SDS011;4807;48.024;11.726;2022-09-02T19:23:33;1.77;;;0.73;;
9536;SDS011;4807;48.024;11.726;2022-09-02T19:26:43;0.87;;;0.83;;
9536;SDS011;4807;48.024;11.726;2022-09-02T19:29:52;0.80;;;0.80;;
9536;SDS011;4807;48.024;11.726;2022-09-02T19:33:08;1.90;;;0.90;;
9536;SDS011;4807;48.024;11.726;2022-09-02T19:36:22;1.30;;;0.80;;
9536;SDS011;4807;48.024;11.726;2022-09-02T19:39:36;0.90;;;0.70;;
9536;SDS011;4807;48.024;11.726;2022-09-02T19:42:45;1.43;;;0.90;;
9536;SDS011;4807;48.024;11.726;2022-09-02T19:45:57;3.17;;;1.20;;
9536;SDS011;4807;48.024;11.726;2022-09-02T19:49:06;1.20;;;1.10;;
9536;SDS011;4807;48.024;11.726;2022-09-02T19:52:16;1.23;;;1.07;;
9536;SDS011;4807;48.024;11.726;2022-09-02T19:55:26;1.13;;;1.00;;
9536;SDS011;4807;48.024;11.726;2022-09-02T19:58:35;1.00;;;0.90;;
9536;SDS011;4807;48.024;11.726;2022-09-02T20:01:44;0.90;;;0.90;;
9536;SDS011;4807;48.024;11.726;2022-09-02T20:04:52;1.13;;;1.00;;
9536;SDS011;4807;48.024;11.726;2022-09-02T20:08:02;0.83;;;0.70;;
9536;SDS011;4807;48.024;11.726;2022-09-02T20:11:11;1.27;;;1.17;;
9536;SDS011;4807;48.024;11.726;2022-09-02T20:14:22;1.37;;;0.97;;
9536;SDS011;4807;48.024;11.726;2022-09-02T20:17:31;0.83;;;0.83;;
9536;SDS011;4807;48.024;11.726;2022-09-02T20:20:44;1.07;;;0.97;;
9536;SDS011;4807;48.024;11.726;2022-09-02T20:23:55;3.33;;;1.23;;
9536;SDS011;4807;48.024;11.726;2022-09-02T20:27:16;1.17;;;1.00;;
9536;SDS011;4807;48.024;11.726;2022-09-02T20:30:41;1.30;;;1.03;;
9536;SDS011;4807;48.024;11.726;2022-09-02T20:33:58;1.30;;;0.90;;
9536;SDS011;4807;48.024;11.726;2022-09-02T20:37:34;1.10;;;1.00;;
9536;SDS011;4807;48.024;11.726;2022-09-02T20:41:00;1.90;;;1.10;;
9536;SDS011;4807;48.024;11.726;2022-09-02T20:44:28;1.47;;;1.00;;
9536;SDS011;4807;48.024;11.726;2022-09-02T20:47:58;0.80;;;0.80;;
9536;SDS011;4807;48.024;11.726;2022-09-02T20:51:34;1.33;;;1.07;;
9536;SDS011;4807;48.024;11.726;2022-09-02T20:54:53;4.00;;;1.10;;
9536;SDS011;4807;48.024;11.726;2022-09-02T20:58:13;1.27;;;1.13;;
9536;SDS011;4807;48.024;11.726;2022-09-02T21:01:41;0.90;;;0.90;;
9536;SDS011;4807;48.024;11.726;2022-09-02T21:04:51;3.03;;;1.10;;
9536;SDS011;4807;48.024;11.726;2022-09-02T21:08:07;1.40;;;1.30;;
9536;SDS011;4807;48.024;11.726;2022-09-02T21:11:28;1.97;;;0.90;;
9536;SDS011;4807;48.024;11.726;2022-09-02T21:14:50;1.00;;;0.90;;
9536;SDS011;4807;48.024;11.726;2022-09-02T21:18:07;2.40;;;1.40;;
9536;SDS011;4807;48.024;11.726;2022-09-02T21:21:24;1.30;;;1.20;;
9536;SDS011;4807;48.024;11.726;2022-09-02T21:24:42;0.80;;;0.80;;
9536;SDS011;4807;48.024;11.726;2022-09-02T21:28:02;2.77;;;1.10;;
9536;SDS011;4807;48.024;11.726;2022-09-02T21:31:19;2.03;;;1.30;;
9536;SDS011;4807;48.024;11.726;2022-09-02T21:34:42;2.47;;;1.30;;
9536;SDS011;4807;48.024;11.726;2022-09-02T21:38:00;1.50;;;1.40;;
9536;SDS011;4807;48.024;11.726;2022-09-02T21:41:27;1.73;;;1.10;;
9536;SDS011;4807;48.024;11.726;2022-09-02T21:44:42;1.10;;;1.10;;
9536;SDS011;4807;48.024;11.726;2022-09-02T21:48:11;1.83;;;1.10;;
9536;SDS011;4807;48.024;11.726;2022-09-02T21:51:40;2.47;;;1.37;;
9536;SDS011;4807;48.024;11.726;2022-09-02T21:54:58;1.77;;;1.33;;
9536;SDS011;4807;48.024;11.726;2022-09-02T21:58:25;2.80;;;1.23;;
9536;SDS011;4807;48.024;11.726;2022-09-02T22:01:55;1.43;;;1.03;;
9536;SDS011;4807;48.024;11.726;2022-09-02T22:05:14;1.97;;;1.27;;